Terminal Aerodrome Forecast
Issued by NWS Charleston, WV

Current Version | Previous Version | Graphics & Text | Print | Product List | Glossary On
Versions: 1 2 3 4 5 6 7 8 9 10 11 12 13 14 15 16 17 18 19 20 21 22 23 24 25 26 27 28
000
FTUS41 KRLX 302232 AAA
TAFEKN
TAF AMD
KEKN 302232Z 3023/0118 24009KT P6SM VCTS SCT040CB
     FM302330 30010G20KT 2SM TSRA BKN040CB
     FM010100 31004KT 4SM BR BKN035
     FM010700 00000KT 2SM BR BKN010
     FM011300 VRB03KT 3SM HZ BKN015
     FM011400 26004KT P6SM SCT030=

USA.gov is the U.S. government's official web portal to all federal, state and local government web resources and services.